createdAt,value
2023-05-11T00:00:44.940Z,13.91
2023-05-11T00:11:09.497Z,13.76
2023-05-11T00:21:30.866Z,13.69
2023-05-11T00:31:52.292Z,13.65
2023-05-11T00:42:13.784Z,13.60
2023-05-11T00:52:35.295Z,13.53
2023-05-11T01:02:57.211Z,13.45
2023-05-11T01:13:33.622Z,13.34
2023-05-11T01:23:58.037Z,13.28
2023-05-11T01:34:21.464Z,13.28
2023-05-11T01:44:44.556Z,13.27
2023-05-11T01:55:07.044Z,13.24
2023-05-11T02:05:30.015Z,13.13
2023-05-11T02:15:53.101Z,13.04
2023-05-11T02:26:16.682Z,12.89
2023-05-11T02:36:38.812Z,12.87
2023-05-11T02:47:02.465Z,12.76
2023-05-11T02:57:24.178Z,12.72
2023-05-11T03:07:45.833Z,12.62
2023-05-11T03:18:07.642Z,12.62
2023-05-11T03:28:29.759Z,12.62
2023-05-11T03:38:53.417Z,12.56
2023-05-11T03:49:15.678Z,12.49
2023-05-11T03:59:39.184Z,12.49
2023-05-11T04:10:00.630Z,12.45
2023-05-11T04:20:22.002Z,12.34
2023-05-11T04:30:43.347Z,12.25
2023-05-11T04:41:05.501Z,12.21
2023-05-11T04:51:26.894Z,12.12
2023-05-11T05:01:48.279Z,12.05
2023-05-11T05:12:09.631Z,12.18
2023-05-11T05:22:31.680Z,12.12
2023-05-11T05:32:53.199Z,12.19
2023-05-11T05:43:14.628Z,12.21
2023-05-11T05:53:36.240Z,12.16
2023-05-11T06:03:58.091Z,12.21
2023-05-11T06:14:20.139Z,12.25
2023-05-11T06:24:41.977Z,12.33
2023-05-11T06:35:03.424Z,12.43
2023-05-11T06:45:24.917Z,12.51
2023-05-11T06:55:46.461Z,12.42
2023-05-11T07:06:07.951Z,12.47
2023-05-11T07:16:29.437Z,12.59
2023-05-11T07:26:51.892Z,12.69
2023-05-11T07:37:13.265Z,12.78
2023-05-11T07:47:36.766Z,12.87
2023-05-11T07:57:58.424Z,12.99
2023-05-11T08:08:19.857Z,13.10
2023-05-11T08:18:41.277Z,13.19
2023-05-11T08:29:04.340Z,13.28
2023-05-11T08:39:43.809Z,13.37
2023-05-11T08:50:07.599Z,13.49
2023-05-11T09:00:29.793Z,13.69
2023-05-11T09:10:51.955Z,13.97
2023-05-11T09:21:13.453Z,14.14
2023-05-11T09:31:40.954Z,14.43
2023-05-11T09:42:14.569Z,14.56
2023-05-11T09:52:43.624Z,14.73
2023-05-11T10:03:06.814Z,14.78
2023-05-11T10:13:29.469Z,14.92
2023-05-11T10:23:51.037Z,15.16
2023-05-11T10:34:12.819Z,15.13
2023-05-11T10:44:44.320Z,15.26
2023-05-11T10:55:25.503Z,15.35
2023-05-11T11:05:48.157Z,15.39
2023-05-11T11:16:09.810Z,15.46
2023-05-11T11:26:47.949Z,15.53
2023-05-11T11:37:09.434Z,15.68
2023-05-11T11:47:30.906Z,15.66
2023-05-11T11:57:52.284Z,15.96
2023-05-11T12:08:15.612Z,15.77
2023-05-11T12:18:36.994Z,15.75
2023-05-11T12:29:09.098Z,15.74
2023-05-11T12:39:31.216Z,15.61
2023-05-11T12:49:52.798Z,15.65
2023-05-11T13:00:14.671Z,15.85
2023-05-11T13:10:36.115Z,15.95
2023-05-11T13:21:07.616Z,16.08
2023-05-11T13:31:29.208Z,16.19
2023-05-11T13:41:51.981Z,16.21
2023-05-11T13:52:15.125Z,16.19
2023-05-11T14:02:36.604Z,16.26
2023-05-11T14:12:58.040Z,16.23
2023-05-11T14:23:19.385Z,16.17
2023-05-11T14:33:40.860Z,16.09
2023-05-11T14:44:02.265Z,16.01
2023-05-11T14:54:23.646Z,15.96
2023-05-11T15:04:45.000Z,15.88
2023-05-11T15:15:06.674Z,15.82
2023-05-11T15:25:28.040Z,15.86
2023-05-11T15:35:50.449Z,15.77
2023-05-11T15:46:11.932Z,15.63
2023-05-11T15:56:33.498Z,15.47
2023-05-11T16:06:56.713Z,15.39
2023-05-11T16:17:19.524Z,15.37
2023-05-11T16:27:40.946Z,15.22
2023-05-11T16:38:02.599Z,15.14
2023-05-11T16:48:26.740Z,15.07
2023-05-11T16:58:48.289Z,15.03
2023-05-11T17:09:09.694Z,14.97
2023-05-11T17:19:31.661Z,14.89
2023-05-11T17:29:53.070Z,14.74
2023-05-11T17:40:15.832Z,14.62
2023-05-11T17:50:37.333Z,14.53
2023-05-11T18:00:58.713Z,14.39
2023-05-11T18:11:20.092Z,14.29
2023-05-11T18:21:41.568Z,14.23
2023-05-11T18:32:03.134Z,14.20
2023-05-11T18:42:24.627Z,14.20
2023-05-11T18:52:46.010Z,14.18
2023-05-11T19:03:07.729Z,14.12
2023-05-11T19:13:29.160Z,14.10
2023-05-11T19:23:50.645Z,14.13
2023-05-11T19:34:12.048Z,14.11
2023-05-11T19:44:34.628Z,14.14
2023-05-11T19:54:55.992Z,14.14
2023-05-11T20:05:17.416Z,14.14
2023-05-11T20:15:38.970Z,14.18
2023-05-11T20:26:00.894Z,14.15
2023-05-11T20:36:22.241Z,14.15
2023-05-11T20:46:43.803Z,14.10
2023-05-11T20:57:05.498Z,14.10
2023-05-11T21:07:28.282Z,14.05
2023-05-11T21:17:49.806Z,14.08
2023-05-11T21:28:11.228Z,14.09
2023-05-11T21:38:32.599Z,14.04
2023-05-11T21:48:53.935Z,14.07
2023-05-11T21:59:17.017Z,14.12
2023-05-11T22:09:38.500Z,14.13
2023-05-11T22:19:59.846Z,14.18
2023-05-11T22:30:21.515Z,14.18
2023-05-11T22:40:43.040Z,14.24
2023-05-11T22:51:06.213Z,14.23
2023-05-11T23:01:28.443Z,14.25
2023-05-11T23:11:49.796Z,14.27
2023-05-11T23:22:11.242Z,14.26
2023-05-11T23:32:32.830Z,14.27
2023-05-11T23:42:54.598Z,14.24
2023-05-11T23:53:15.958Z,14.24
